createdAt,value
2023-10-25T00:00:32.374Z,45.28
2023-10-25T00:02:59.467Z,45.16
2023-10-25T00:05:32.022Z,45.55
2023-10-25T00:07:58.809Z,45.67
2023-10-25T00:10:25.826Z,45.79
2023-10-25T00:12:52.666Z,46.16
2023-10-25T00:15:19.647Z,45.82
2023-10-25T00:17:46.558Z,46.59
2023-10-25T00:20:13.548Z,46.33
2023-10-25T00:22:40.350Z,46.66
2023-10-25T00:25:07.551Z,46.88
2023-10-25T00:27:34.470Z,47.14
2023-10-25T00:30:01.296Z,47.22
2023-10-25T00:32:28.082Z,47.60
2023-10-25T00:34:54.915Z,47.50
2023-10-25T00:37:21.752Z,47.50
2023-10-25T00:39:49.315Z,47.47
2023-10-25T00:42:16.267Z,47.87
2023-10-25T00:44:43.161Z,47.88
2023-10-25T00:47:10.007Z,48.13
2023-10-25T00:49:38.084Z,48.12
2023-10-25T00:52:05.882Z,48.30
2023-10-25T00:54:32.944Z,48.30
2023-10-25T00:57:00.348Z,48.33
2023-10-25T00:59:28.575Z,48.34
2023-10-25T01:01:55.800Z,48.70
2023-10-25T01:04:22.750Z,48.57
2023-10-25T01:06:49.710Z,48.88
2023-10-25T01:09:16.613Z,48.94
2023-10-25T01:11:43.595Z,48.88
2023-10-25T01:14:11.380Z,49.06
2023-10-25T01:16:38.261Z,48.98
2023-10-25T01:19:05.143Z,49.13
2023-10-25T01:21:32.394Z,49.19
2023-10-25T01:23:59.419Z,49.32
2023-10-25T01:26:26.288Z,49.43
2023-10-25T01:28:53.106Z,49.75
2023-10-25T01:31:20.962Z,49.64
2023-10-25T01:33:52.349Z,49.57
2023-10-25T01:36:20.154Z,50.11
2023-10-25T01:38:47.023Z,50.03
2023-10-25T01:41:19.689Z,50.18
2023-10-25T01:43:47.725Z,50.18
2023-10-25T01:46:15.062Z,50.36
2023-10-25T01:48:42.090Z,50.43
2023-10-25T01:51:09.886Z,50.46
2023-10-25T01:53:37.211Z,50.59
2023-10-25T01:56:04.221Z,50.54
2023-10-25T01:58:31.607Z,50.72
2023-10-25T02:00:58.666Z,50.66
2023-10-25T02:03:25.662Z,51.11
2023-10-25T02:05:52.552Z,51.01
2023-10-25T02:08:19.393Z,51.03
2023-10-25T02:10:46.289Z,51.18
2023-10-25T02:13:13.196Z,51.33
2023-10-25T02:15:41.162Z,51.39
2023-10-25T02:18:08.607Z,51.44
2023-10-25T02:20:35.480Z,51.61
2023-10-25T02:23:02.678Z,51.70
2023-10-25T02:25:29.588Z,52.01
2023-10-25T02:27:58.084Z,52.48
2023-10-25T02:30:25.293Z,52.29
2023-10-25T02:32:52.210Z,52.49
2023-10-25T02:35:19.436Z,52.62
2023-10-25T02:37:46.396Z,52.77
2023-10-25T02:40:13.230Z,53.00
2023-10-25T02:42:43.597Z,53.06
2023-10-25T02:45:10.646Z,53.15
2023-10-25T02:47:37.722Z,53.03
2023-10-25T02:50:06.209Z,53.03
2023-10-25T02:52:33.015Z,52.90
2023-10-25T02:54:59.865Z,53.18
2023-10-25T02:57:26.777Z,53.16
2023-10-25T02:59:54.945Z,53.11
2023-10-25T03:02:21.854Z,53.45
2023-10-25T03:04:49.021Z,53.63
2023-10-25T03:07:15.849Z,53.37
2023-10-25T03:09:42.848Z,53.53
2023-10-25T03:12:10.096Z,53.90
2023-10-25T03:14:36.843Z,53.71
2023-10-25T03:17:03.854Z,53.65
2023-10-25T03:19:31.157Z,53.82
2023-10-25T03:21:58.363Z,53.71
2023-10-25T03:24:25.447Z,53.71
2023-10-25T03:26:52.334Z,53.61
2023-10-25T03:29:19.236Z,53.59
2023-10-25T03:31:46.168Z,53.67
2023-10-25T03:34:13.314Z,53.47
2023-10-25T03:36:40.179Z,53.39
2023-10-25T03:39:07.232Z,53.31
2023-10-25T03:41:34.213Z,53.26
2023-10-25T03:44:01.125Z,53.50
2023-10-25T03:46:28.051Z,53.44
2023-10-25T03:48:54.970Z,53.52
2023-10-25T03:51:23.172Z,53.69
2023-10-25T03:53:50.636Z,53.58
2023-10-25T03:56:17.473Z,53.80
2023-10-25T03:58:44.367Z,53.60
2023-10-25T04:01:12.452Z,53.71
2023-10-25T04:03:39.663Z,53.62
2023-10-25T04:06:08.425Z,53.45
2023-10-25T04:08:35.442Z,53.30
2023-10-25T04:11:02.711Z,53.53
2023-10-25T04:13:29.596Z,53.81
2023-10-25T04:16:01.546Z,53.65
2023-10-25T04:18:29.066Z,53.85
2023-10-25T04:20:57.320Z,53.97
2023-10-25T04:23:25.786Z,53.96
2023-10-25T04:25:53.300Z,54.05
2023-10-25T04:28:20.453Z,53.81
2023-10-25T04:30:47.631Z,54.11
2023-10-25T04:33:15.334Z,54.02
2023-10-25T04:35:42.806Z,53.81
2023-10-25T04:38:10.330Z,53.93
2023-10-25T04:40:37.120Z,54.01
2023-10-25T04:43:04.081Z,53.87
2023-10-25T04:45:30.991Z,53.74
2023-10-25T04:47:57.951Z,53.59
2023-10-25T04:50:24.874Z,53.73
2023-10-25T04:52:51.763Z,53.72
2023-10-25T04:55:18.793Z,53.98
2023-10-25T04:57:45.716Z,53.77
2023-10-25T05:00:13.313Z,53.74
2023-10-25T05:02:40.399Z,53.68
2023-10-25T05:05:09.085Z,53.79
2023-10-25T05:07:38.541Z,53.72
2023-10-25T05:10:10.441Z,53.85
2023-10-25T05:12:44.540Z,53.98
2023-10-25T05:15:13.537Z,53.85
2023-10-25T05:17:41.272Z,53.96
2023-10-25T05:20:08.940Z,54.29
2023-10-25T05:22:37.902Z,54.47
2023-10-25T05:25:06.785Z,54.25
2023-10-25T05:27:35.140Z,54.45
2023-10-25T05:30:06.550Z,54.25
2023-10-25T05:32:35.541Z,54.53
2023-10-25T05:35:04.982Z,54.45
2023-10-25T05:37:32.523Z,54.45
2023-10-25T05:39:59.678Z,54.78
2023-10-25T05:42:27.030Z,54.63
2023-10-25T05:44:57.577Z,54.43
2023-10-25T05:47:25.239Z,54.38
2023-10-25T05:49:52.875Z,54.47
2023-10-25T05:52:21.242Z,54.55
2023-10-25T05:54:48.678Z,54.60
2023-10-25T05:57:15.898Z,54.62
2023-10-25T05:59:43.003Z,54.50
2023-10-25T06:02:12.504Z,54.90
2023-10-25T06:04:41.069Z,54.54
2023-10-25T06:07:10.968Z,54.75
2023-10-25T06:09:39.058Z,54.62
2023-10-25T06:12:07.064Z,54.46
2023-10-25T06:14:34.067Z,54.78
2023-10-25T06:17:02.353Z,54.85
2023-10-25T06:19:29.386Z,55.04
2023-10-25T06:21:56.553Z,54.90
2023-10-25T06:24:23.553Z,54.87
2023-10-25T06:26:50.673Z,55.05
2023-10-25T06:29:17.642Z,54.94
2023-10-25T06:31:51.360Z,55.04
2023-10-25T06:34:20.134Z,55.07
2023-10-25T06:36:48.061Z,55.33
2023-10-25T06:39:15.260Z,55.25
2023-10-25T06:41:43.238Z,55.34
2023-10-25T06:44:10.789Z,55.59
2023-10-25T06:46:38.110Z,55.52
2023-10-25T06:49:05.472Z,55.96
2023-10-25T06:51:32.610Z,55.82
2023-10-25T06:53:59.757Z,55.63
2023-10-25T06:56:26.916Z,55.50
2023-10-25T06:58:54.565Z,55.37
2023-10-25T07:01:24.749Z,55.09
2023-10-25T07:03:52.552Z,59.38
2023-10-25T07:06:20.094Z,56.95
2023-10-25T07:08:49.794Z,57.29
2023-10-25T07:11:16.914Z,57.03
2023-10-25T07:13:43.811Z,58.48
2023-10-25T07:16:10.823Z,55.69
2023-10-25T07:18:40.083Z,54.90
2023-10-25T07:21:07.573Z,54.31
2023-10-25T07:23:34.504Z,55.24
2023-10-25T07:26:01.348Z,54.33
2023-10-25T07:28:28.220Z,55.52
2023-10-25T07:30:55.137Z,54.13
2023-10-25T07:33:25.995Z,53.89
2023-10-25T07:35:52.802Z,54.80
2023-10-25T07:38:19.601Z,54.10
2023-10-25T07:40:46.691Z,53.38
2023-10-25T07:43:13.515Z,53.65
2023-10-25T07:45:40.301Z,53.09
2023-10-25T07:48:07.225Z,53.51
2023-10-25T07:50:35.877Z,52.47
2023-10-25T07:53:02.788Z,52.24
2023-10-25T08:00:29.041Z,52.31
2023-10-25T08:02:56.001Z,52.40
2023-10-25T08:05:23.000Z,51.80
2023-10-25T08:07:49.922Z,51.62
2023-10-25T08:10:16.810Z,53.15
2023-10-25T08:12:43.696Z,51.74
2023-10-25T08:15:10.677Z,51.35
2023-10-25T08:17:37.613Z,51.63
2023-10-25T08:20:06.767Z,51.33
2023-10-25T08:22:35.140Z,50.78
2023-10-25T08:25:02.337Z,50.93
2023-10-25T08:27:29.238Z,50.75
2023-10-25T08:29:57.494Z,51.24
2023-10-25T08:32:24.729Z,51.73
2023-10-25T08:34:51.739Z,50.67
2023-10-25T08:37:19.444Z,51.10
2023-10-25T08:39:46.286Z,51.37
2023-10-25T08:42:13.421Z,50.44
2023-10-25T08:44:43.056Z,51.42
2023-10-25T08:47:11.668Z,50.68
2023-10-25T08:49:39.390Z,50.49
2023-10-25T08:52:07.699Z,49.68
2023-10-25T08:54:37.774Z,49.74
2023-10-25T08:57:06.168Z,50.45
2023-10-25T08:59:42.936Z,49.63
2023-10-25T09:02:12.902Z,49.76
2023-10-25T09:04:58.961Z,49.64
2023-10-25T09:07:30.541Z,49.03
2023-10-25T09:09:58.023Z,49.59
2023-10-25T09:12:25.825Z,49.22
2023-10-25T09:14:53.398Z,48.56
2023-10-25T09:17:20.467Z,49.37
2023-10-25T09:19:49.722Z,48.81
2023-10-25T09:22:27.068Z,49.37
2023-10-25T09:25:01.662Z,49.23
2023-10-25T09:27:29.586Z,49.48
2023-10-25T09:30:26.506Z,48.94
2023-10-25T09:32:54.557Z,48.58
2023-10-25T09:35:21.906Z,48.73
2023-10-25T09:37:48.925Z,49.00
2023-10-25T09:40:16.050Z,49.30
2023-10-25T09:42:53.377Z,48.26
2023-10-25T09:45:26.810Z,48.76
2023-10-25T09:47:58.769Z,48.50
2023-10-25T09:50:38.666Z,48.13
2023-10-25T09:53:15.133Z,48.43
2023-10-25T09:55:47.008Z,48.17
2023-10-25T09:58:15.989Z,48.49
2023-10-25T10:00:43.230Z,49.10
2023-10-25T10:03:33.542Z,48.16
2023-10-25T10:06:07.148Z,48.11
2023-10-25T10:09:14.179Z,47.95
2023-10-25T10:11:48.535Z,48.49
2023-10-25T10:14:38.046Z,48.29
2023-10-25T10:17:15.037Z,48.25
2023-10-25T10:19:44.516Z,48.24
2023-10-25T10:22:14.989Z,47.79
2023-10-25T10:24:43.134Z,47.33
2023-10-25T10:27:55.474Z,47.32
2023-10-25T10:30:31.472Z,46.45
2023-10-25T10:32:58.814Z,47.17
2023-10-25T10:35:26.603Z,47.19
2023-10-25T10:37:57.184Z,46.61
2023-10-25T10:40:24.427Z,46.14
2023-10-25T10:42:51.487Z,46.63
2023-10-25T10:45:20.844Z,45.85
2023-10-25T10:47:59.505Z,46.14
2023-10-25T10:50:27.115Z,46.04
2023-10-25T10:52:54.322Z,45.56
2023-10-25T10:55:23.611Z,45.85
2023-10-25T11:00:20.863Z,45.34
2023-10-25T11:02:49.389Z,46.04
2023-10-25T11:05:16.819Z,44.81
2023-10-25T11:07:43.787Z,44.67
2023-10-25T11:10:11.366Z,45.39
2023-10-25T11:12:38.564Z,44.76
2023-10-25T11:15:06.740Z,44.97
2023-10-25T11:17:34.893Z,45.17
2023-10-25T11:20:05.884Z,44.84
2023-10-25T11:22:33.736Z,44.03
2023-10-25T11:25:01.143Z,44.43
2023-10-25T11:27:32.131Z,44.24
2023-10-25T11:30:01.245Z,44.13
2023-10-25T11:32:31.407Z,43.81
2023-10-25T11:34:58.433Z,44.08
2023-10-25T11:37:26.711Z,44.43
2023-10-25T11:40:01.036Z,44.50
2023-10-25T11:42:30.946Z,43.51
2023-10-25T11:45:00.517Z,43.38
2023-10-25T11:47:28.996Z,43.99
2023-10-25T11:50:00.579Z,43.22
2023-10-25T11:52:28.934Z,43.54
2023-10-25T11:54:57.747Z,44.08
2023-10-25T11:57:33.164Z,43.34
2023-10-25T12:00:00.127Z,42.49
2023-10-25T12:02:28.374Z,42.78
2023-10-25T12:04:56.231Z,42.74
2023-10-25T12:07:24.775Z,42.41
2023-10-25T12:09:53.094Z,42.82
2023-10-25T12:12:21.026Z,43.67
2023-10-25T12:14:48.498Z,43.95
2023-10-25T12:17:15.915Z,43.36
2023-10-25T12:19:43.395Z,42.59
2023-10-25T12:22:13.750Z,42.18
2023-10-25T12:24:43.773Z,42.30
2023-10-25T12:27:12.708Z,42.05
2023-10-25T12:29:40.416Z,43.33
2023-10-25T12:32:07.906Z,42.71
2023-10-25T12:34:34.852Z,41.97
2023-10-25T12:37:01.944Z,42.34
2023-10-25T12:39:28.843Z,42.35
2023-10-25T12:41:55.819Z,42.18
2023-10-25T12:44:22.703Z,42.23
2023-10-25T12:46:49.600Z,42.24
2023-10-25T12:49:18.376Z,42.71
2023-10-25T12:51:46.218Z,42.27
2023-10-25T12:54:13.133Z,42.31
2023-10-25T12:56:40.000Z,41.89
2023-10-25T12:59:06.907Z,42.54
2023-10-25T13:01:33.931Z,42.10
2023-10-25T13:04:00.925Z,42.63
2023-10-25T13:06:28.287Z,42.54
2023-10-25T13:08:56.653Z,42.28
2023-10-25T13:11:23.643Z,42.23
2023-10-25T13:13:50.730Z,42.04
2023-10-25T13:16:17.757Z,42.72
2023-10-25T13:18:44.605Z,41.93
2023-10-25T13:21:11.452Z,42.53
2023-10-25T13:23:38.289Z,41.83
2023-10-25T13:26:05.179Z,41.92
2023-10-25T13:28:32.008Z,42.32
2023-10-25T13:30:58.908Z,41.76
2023-10-25T13:33:27.561Z,41.96
2023-10-25T13:35:54.727Z,42.44
2023-10-25T13:38:21.704Z,42.04
2023-10-25T13:40:49.668Z,42.14
2023-10-25T13:43:17.396Z,42.28
2023-10-25T13:45:46.235Z,41.94
2023-10-25T13:48:13.805Z,42.23
2023-10-25T13:50:41.136Z,42.98
2023-10-25T13:53:08.294Z,43.15
2023-10-25T13:55:39.305Z,42.92
2023-10-25T13:58:12.857Z,43.42
2023-10-25T14:00:42.602Z,42.91
2023-10-25T14:03:09.770Z,43.00
2023-10-25T14:05:44.066Z,43.28
2023-10-25T14:08:11.247Z,42.86
2023-10-25T14:10:48.759Z,43.05
2023-10-25T14:13:37.733Z,42.88
2023-10-25T14:16:11.682Z,43.14
2023-10-25T14:18:39.048Z,42.73
2023-10-25T14:21:12.201Z,43.36
2023-10-25T14:23:41.387Z,43.40
2023-10-25T14:26:08.545Z,43.54
2023-10-25T14:28:35.975Z,43.67
2023-10-25T14:31:03.143Z,43.70
2023-10-25T14:33:30.450Z,43.60
2023-10-25T14:35:58.085Z,43.55
2023-10-25T14:38:25.029Z,43.79
2023-10-25T14:40:51.924Z,43.83
2023-10-25T14:43:18.814Z,44.20
2023-10-25T14:45:47.129Z,44.47
2023-10-25T14:48:14.688Z,44.73
2023-10-25T14:50:41.801Z,44.69
2023-10-25T14:53:08.823Z,44.57
2023-10-25T14:55:37.349Z,45.00
2023-10-25T14:58:05.726Z,44.84
2023-10-25T15:00:33.195Z,44.97
2023-10-25T15:03:00.360Z,45.05
2023-10-25T15:05:27.408Z,44.91
2023-10-25T15:07:56.495Z,44.66
2023-10-25T15:10:23.556Z,44.97
2023-10-25T15:12:50.469Z,44.79
2023-10-25T15:15:17.519Z,44.33
2023-10-25T15:17:47.201Z,44.15
2023-10-25T15:20:15.543Z,44.53
2023-10-25T15:22:42.756Z,44.46
2023-10-25T15:25:11.206Z,44.29
2023-10-25T15:27:39.218Z,43.88
2023-10-25T15:30:06.804Z,44.35
2023-10-25T15:32:34.006Z,44.36
2023-10-25T15:35:00.937Z,44.26
2023-10-25T15:37:29.354Z,44.45
2023-10-25T15:40:09.462Z,44.22
2023-10-25T15:42:42.638Z,44.54
2023-10-25T15:45:14.107Z,44.46
2023-10-25T15:47:41.450Z,44.62
2023-10-25T15:50:09.276Z,44.76
2023-10-25T15:52:37.369Z,45.44
2023-10-25T15:55:05.768Z,44.98
2023-10-25T15:57:33.085Z,44.85
2023-10-25T16:00:00.026Z,45.08
2023-10-25T16:02:26.908Z,44.85
2023-10-25T16:04:53.970Z,45.40
2023-10-25T16:07:20.977Z,45.43
2023-10-25T16:09:48.539Z,44.79
2023-10-25T16:12:15.331Z,44.90
2023-10-25T16:14:42.445Z,45.18
2023-10-25T16:17:09.802Z,44.64
2023-10-25T16:19:37.476Z,44.35
2023-10-25T16:22:05.597Z,44.58
2023-10-25T16:24:32.564Z,44.45
2023-10-25T16:27:00.168Z,44.35
2023-10-25T16:29:30.482Z,44.76
2023-10-25T16:31:57.323Z,45.07
2023-10-25T16:34:24.178Z,45.13
2023-10-25T16:37:03.384Z,45.35
2023-10-25T16:39:32.448Z,45.67
2023-10-25T16:42:02.613Z,45.94
2023-10-25T16:44:29.986Z,46.66
2023-10-25T16:46:57.077Z,46.55
2023-10-25T16:49:24.038Z,46.80
2023-10-25T16:51:50.869Z,47.30
2023-10-25T16:54:17.979Z,47.15
2023-10-25T16:56:45.543Z,46.85
2023-10-25T16:59:14.650Z,47.56
2023-10-25T17:01:41.617Z,47.25
2023-10-25T17:04:08.714Z,47.31
2023-10-25T17:06:35.914Z,47.50
2023-10-25T17:09:04.410Z,47.47
2023-10-25T17:11:31.363Z,47.27
2023-10-25T17:13:58.325Z,47.32
2023-10-25T17:16:25.302Z,47.79
2023-10-25T17:18:53.280Z,47.41
2023-10-25T17:21:20.281Z,47.57
2023-10-25T17:23:47.513Z,47.79
2023-10-25T17:26:14.367Z,47.40
2023-10-25T17:28:41.292Z,47.41
2023-10-25T17:31:08.230Z,47.31
2023-10-25T17:33:35.323Z,47.23
2023-10-25T17:36:02.570Z,47.58
2023-10-25T17:38:31.931Z,47.44
2023-10-25T17:41:00.429Z,47.48
2023-10-25T17:43:27.515Z,47.44
2023-10-25T17:48:29.041Z,47.75
2023-10-25T17:50:56.382Z,48.00
2023-10-25T17:53:24.109Z,47.92
2023-10-25T17:55:51.214Z,47.97
2023-10-25T17:58:18.238Z,48.35
2023-10-25T18:00:48.415Z,48.42
2023-10-25T18:03:15.555Z,48.38
2023-10-25T18:05:43.374Z,48.29
2023-10-25T18:08:12.688Z,48.51
2023-10-25T18:10:43.801Z,48.69
2023-10-25T18:13:11.374Z,48.74
2023-10-25T18:15:38.981Z,49.20
2023-10-25T18:18:13.066Z,49.14
2023-10-25T18:20:40.350Z,49.38
2023-10-25T18:23:07.427Z,49.39
2023-10-25T18:25:34.273Z,49.38
2023-10-25T18:28:01.895Z,49.32
2023-10-25T18:32:02.397Z,49.51
2023-10-25T18:33:20.423Z,49.48
2023-10-25T18:35:49.322Z,49.31
2023-10-25T18:38:16.605Z,49.64
2023-10-25T18:40:55.386Z,49.50
2023-10-25T18:43:22.674Z,49.72
2023-10-25T18:46:02.470Z,49.65
2023-10-25T18:48:29.776Z,49.88
2023-10-25T18:51:00.541Z,49.51
2023-10-25T18:53:30.214Z,49.50
2023-10-25T18:56:01.269Z,49.62
2023-10-25T18:58:29.555Z,49.91
2023-10-25T19:00:57.529Z,49.68
2023-10-25T19:03:28.390Z,49.67
2023-10-25T19:06:23.149Z,49.66
2023-10-25T19:08:43.625Z,49.83
2023-10-25T19:11:11.034Z,49.83
2023-10-25T19:13:39.884Z,49.86
2023-10-25T19:16:12.774Z,49.87
2023-10-25T19:18:39.677Z,49.97
2023-10-25T19:21:07.346Z,50.08
2023-10-25T19:23:34.292Z,50.15
2023-10-25T19:26:06.220Z,50.11
2023-10-25T19:28:35.716Z,50.19
2023-10-25T19:31:02.646Z,50.41
2023-10-25T19:33:29.663Z,50.27
2023-10-25T19:35:56.846Z,50.33
2023-10-25T19:38:23.946Z,50.42
2023-10-25T19:40:50.792Z,50.13
2023-10-25T19:43:21.375Z,50.48
2023-10-25T19:45:48.273Z,50.39
2023-10-25T19:48:15.124Z,50.57
2023-10-25T19:50:42.056Z,50.50
2023-10-25T19:53:10.221Z,50.53
2023-10-25T19:55:38.031Z,50.64
2023-10-25T19:58:04.885Z,50.53
2023-10-25T20:00:31.780Z,50.53
2023-10-25T20:02:58.743Z,50.54
2023-10-25T20:05:25.754Z,50.80
2023-10-25T20:07:52.529Z,51.02
2023-10-25T20:10:19.413Z,50.89
2023-10-25T20:12:48.360Z,50.84
2023-10-25T20:15:15.298Z,50.49
2023-10-25T20:17:43.477Z,50.54
2023-10-25T20:20:10.841Z,50.95
2023-10-25T20:22:38.161Z,50.88
2023-10-25T20:25:05.761Z,50.90
2023-10-25T20:27:34.679Z,51.07
2023-10-25T20:30:01.676Z,51.18
2023-10-25T20:32:32.276Z,50.97
2023-10-25T20:35:00.050Z,51.14
2023-10-25T20:37:26.982Z,51.49
2023-10-25T20:39:53.883Z,51.34
2023-10-25T20:42:20.806Z,51.62
2023-10-25T20:44:48.190Z,51.77
2023-10-25T20:47:15.175Z,51.74
2023-10-25T20:49:42.100Z,51.98
2023-10-25T20:52:08.922Z,52.06
2023-10-25T20:54:35.765Z,52.06
2023-10-25T20:57:02.722Z,52.31
2023-10-25T20:59:29.544Z,52.13
2023-10-25T21:01:56.392Z,52.64
2023-10-25T21:04:26.189Z,52.63
2023-10-25T21:06:53.334Z,52.87
2023-10-25T21:09:20.430Z,52.91
2023-10-25T21:11:47.365Z,52.84
2023-10-25T21:14:14.300Z,52.94
2023-10-25T21:16:41.109Z,52.85
2023-10-25T21:19:08.048Z,53.20
2023-10-25T21:21:34.961Z,53.11
2023-10-25T21:24:01.896Z,53.29
2023-10-25T21:26:29.536Z,53.27
2023-10-25T21:28:58.051Z,53.63
2023-10-25T21:31:28.259Z,53.12
2023-10-25T21:33:55.321Z,53.36
2023-10-25T21:36:24.188Z,53.45
2023-10-25T21:38:51.282Z,53.29
2023-10-25T21:41:18.325Z,53.49
2023-10-25T21:43:45.148Z,53.81
2023-10-25T21:46:12.516Z,53.75
2023-10-25T21:48:39.566Z,53.76
2023-10-25T21:51:07.421Z,53.25
2023-10-25T21:53:35.037Z,53.31
2023-10-25T21:56:23.505Z,53.08
2023-10-25T21:59:48.131Z,52.82
2023-10-25T22:01:36.877Z,53.02
2023-10-25T22:04:04.287Z,52.87
2023-10-25T22:06:32.142Z,53.02
2023-10-25T22:08:59.177Z,53.04
2023-10-25T22:11:26.176Z,52.97
2023-10-25T22:13:52.973Z,52.94
2023-10-25T22:16:19.902Z,52.99
2023-10-25T22:18:46.774Z,52.98
2023-10-25T22:21:13.765Z,53.12
2023-10-25T22:23:40.695Z,53.00
2023-10-25T22:26:07.536Z,52.98
2023-10-25T22:28:34.282Z,53.11
2023-10-25T22:31:05.566Z,53.25
2023-10-25T22:33:32.877Z,53.26
2023-10-25T22:36:02.591Z,53.18
2023-10-25T22:38:30.896Z,53.25
2023-10-25T22:40:59.049Z,53.14
2023-10-25T22:43:28.087Z,53.38
2023-10-25T22:45:54.962Z,53.20
2023-10-25T22:48:22.797Z,53.40
2023-10-25T22:50:56.433Z,53.33
2023-10-25T22:53:23.608Z,53.43
2023-10-25T22:55:50.417Z,53.72
2023-10-25T22:58:17.495Z,53.97
2023-10-25T23:00:45.694Z,53.45
2023-10-25T23:03:12.830Z,53.35
2023-10-25T23:05:48.219Z,53.64
2023-10-25T23:08:14.970Z,53.49
2023-10-25T23:10:42.305Z,53.23
2023-10-25T23:13:09.247Z,53.36
2023-10-25T23:15:37.070Z,53.63
2023-10-25T23:18:04.775Z,53.86
2023-10-25T23:20:32.019Z,53.99
2023-10-25T23:22:58.820Z,53.89
2023-10-25T23:25:25.699Z,54.06
2023-10-25T23:27:52.514Z,54.08
2023-10-25T23:30:19.268Z,54.30
2023-10-25T23:32:46.198Z,54.17
2023-10-25T23:35:14.549Z,54.26
2023-10-25T23:37:41.448Z,54.18
2023-10-25T23:40:08.709Z,54.42
2023-10-25T23:42:35.757Z,54.48
2023-10-25T23:45:02.724Z,54.45
2023-10-25T23:47:29.602Z,54.64
2023-10-25T23:49:56.464Z,54.82
2023-10-25T23:52:23.270Z,55.22
2023-10-25T23:54:54.678Z,55.29
2023-10-25T23:57:22.803Z,55.69
2023-10-25T23:59:49.917Z,55.36
